• Join FlightAware (Why Join?)
  • Login
  • US Flag 
01:25PM EST


 

Airport Tracker/Info


-or-


 

Live Flight TrackerFlight Track Log ✈ N211RN ✈ 04-May-2014 ✈ KMDW - KAGC

Flight Track Log - Related Links

Times and Time Zones

All times are in EDT time to prevent confusion due to time zone crossing. See the N211RN flight status page for this flight to view local times or setup timezone preferences in your user account.

Time Position Orientation Groundspeed Altitude Reporting Facility
EDT Latitude Longitude Course Direction KTS MPH feet Rate Location/Type
01:35PM 41.8167 -87.5000 90° East 264 304 4,300  Level Chicago TRACON
01:36PM 41.8075 -87.3761 96° East 316 364 9,100 3,240 Climbing Chicago Center
01:37PM 41.7867 -87.2394 102° East 388 447 11,400 2,520 Climbing Chicago Center
01:38PM 41.7622 -87.0711 101° East 427 491 14,400 2,940 Climbing Chicago Center
01:39PM 41.7617 -86.9078 90° East 439 505 17,500 2,580 Climbing Chicago Center
01:40PM 41.7500 -86.8671 90° East  Level FlightAware Approximate
01:40PM 41.7653 -86.7597 88° East 438 504 19,800  Level Chicago Center
01:41PM 41.7658 -86.5678 90° East 465 535 22,000 1,980 Climbing Chicago Center
01:42PM 41.7672 -86.3844 89° East 489 563 24,000 1,860 Climbing Chicago Center
01:43PM 41.7608 -86.1953 93° East 503 579 25,900 2,040 Climbing Chicago Center
01:44PM 41.7450 -85.9653 95° East 515 593 28,300 1,980 Climbing Chicago Center
01:45PM 41.7058 -85.7783 106° East 526 605 30,100 1,680 Climbing Chicago Center
01:46PM 41.6831 -85.5875 99° East 518 596 31,800 1,500 Climbing Chicago Center
01:48PM 41.6794 -85.4103 92° East 515 593 33,300 1,440 Climbing Chicago Center
01:49PM 41.6772 -85.1806 91° East 537 618 34,800 780 Climbing Chicago Center
01:50PM 41.6725 -84.9831 92° East 538 619 35,000 60 Climbing Chicago Center
01:50PM 41.6678 -84.8228 92° East 539 620 35,000  Level Cleveland Center
01:51PM 41.6506 -84.6231 97° East 540 621 35,000  Level Cleveland Center
01:52PM 41.6131 -84.4239 104° East 552 635 35,000  Level Cleveland Center
01:54PM 41.5747 -84.2092 103° East 552 635 35,000  Level Cleveland Center
01:55PM 41.5406 -84.0131 103° East 551 634 35,000  Level Cleveland Center
01:56PM 41.4969 -83.7761 104° East 551 634 35,100  Climbing Cleveland Center
01:57PM 41.4608 -83.5789 104° East 551 634 35,000 -60 Descending Cleveland Center
01:58PM 41.4242 -83.3814 104° East 551 634 35,000  Level Cleveland Center
01:59PM 41.3825 -83.1567 104° East 555 639 35,000  Level Cleveland Center
02:00PM 41.3439 -82.9547 104° East 556 640 35,000 -300 Level Cleveland Center
02:01PM 41.3050 -82.7528 104° East 559 643 34,400 -840 Descending Cleveland Center
02:02PM 41.2664 -82.5508 104° East 559 643 33,400 -1,020 Descending Cleveland Center
02:03PM 41.2261 -82.3475 105° East 563 648 32,400 -1,020 Descending Cleveland Center
02:04PM 41.1858 -82.1453 105° East 563 648 31,400 -1,020 Descending Cleveland Center
02:05PM 41.1408 -81.9228 105° East 569 655 30,300 -1,080 Descending Cleveland Center
02:06PM 41.0972 -81.7042 105° East 574 661 29,200 -1,020 Descending Cleveland Center
02:07PM 41.0553 -81.4997 105° East 576 663 28,200 -1,020 Descending Cleveland Center
02:08PM 41.0122 -81.2950 106° East 576 663 27,200 -1,800 Descending Cleveland Center
02:09PM 40.9697 -81.0911 105° East 576 663 24,500 -3,360 Descending Cleveland Center
02:10PM 40.9247 -80.8703 105° East 554 638 20,300 -3,840 Descending Cleveland Center
02:11PM 40.8867 -80.6981 106° East 494 568 16,600 -3,780 Descending Cleveland Center
02:12PM 40.8147 -80.5536 123° Southeast 449 517 12,600 -2,880 Descending Cleveland Center
02:13PM 40.7422 -80.4383 130° Southeast 406 467 10,700 -1,260 Descending Cleveland Center
02:14PM 40.6800 -80.3431 131° Southeast 385 443 10,000 -780 Descending Cleveland Center
02:15PM 40.6022 -80.2219 130° Southeast 366 421 9,200 -1,380 Descending Cleveland Center
02:16PM 40.5431 -80.1306 130° Southeast 335 386 7,200 -1,980 Descending Cleveland Center
02:17PM 40.4906 -80.0492 130° Southeast 297 342 5,200 -1,620 Descending Cleveland Center
02:18PM 40.4394 -79.9692 130° Southeast 266 306 3,900 -1,260 Descending Cleveland Center
02:19PM 40.3975 -79.9131 134° Southeast 224 258 2,700 -1,080 Descending Cleveland Center
02:20PM 40.3556 -79.8983 165° South 186 214 1,700 -780 Descending Cleveland Center
02:21PM 40.3536 -79.9392 266° West 174 200 1,200 -540 Descending Cleveland Center
02:23PM 40.3544 -79.9290 123° Southeast  Level Estimated